createdAt,value
2023-05-12T00:01:21.895Z,284
2023-05-12T00:03:34.026Z,286
2023-05-12T00:05:46.242Z,282
2023-05-12T00:07:58.116Z,283
2023-05-12T00:10:09.880Z,283
2023-05-12T00:12:22.115Z,283
2023-05-12T00:14:33.096Z,284
2023-05-12T00:16:46.339Z,284
2023-05-12T00:18:57.717Z,284
2023-05-12T00:21:10.029Z,284
2023-05-12T00:23:20.887Z,284
2023-05-12T00:25:31.443Z,283
2023-05-12T00:27:42.674Z,286
2023-05-12T00:29:54.119Z,286
2023-05-12T00:32:06.927Z,283
2023-05-12T00:34:18.470Z,285
2023-05-12T00:36:29.249Z,288
2023-05-12T00:38:40.581Z,288
2023-05-12T00:40:50.738Z,288
2023-05-12T00:43:01.151Z,288
2023-05-12T00:45:13.641Z,288
2023-05-12T00:47:26.354Z,288
2023-05-12T00:49:38.999Z,288
2023-05-12T00:51:51.449Z,286
2023-05-12T00:54:01.810Z,284
2023-05-12T00:56:12.730Z,285
2023-05-12T00:58:22.952Z,286
2023-05-12T01:00:34.997Z,288
2023-05-12T01:02:45.935Z,288
2023-05-12T01:04:56.712Z,288
2023-05-12T01:07:08.452Z,288
2023-05-12T01:09:20.583Z,288
2023-05-12T01:11:31.375Z,288
2023-05-12T01:13:43.532Z,283
2023-05-12T01:15:53.662Z,286
2023-05-12T01:18:06.515Z,286
2023-05-12T01:20:17.453Z,283
2023-05-12T01:22:28.596Z,283
2023-05-12T01:24:40.465Z,284
2023-05-12T01:26:51.630Z,286
2023-05-12T01:29:02.031Z,284
2023-05-12T01:31:13.485Z,291
2023-05-12T01:33:24.561Z,283
2023-05-12T01:35:36.315Z,283
2023-05-12T01:37:46.815Z,284
2023-05-12T01:39:57.545Z,285
2023-05-12T01:42:07.945Z,284
2023-05-12T01:44:18.667Z,286
2023-05-12T01:46:28.203Z,286
2023-05-12T01:48:40.719Z,284
2023-05-12T01:50:51.607Z,286
2023-05-12T01:53:02.056Z,288
2023-05-12T01:55:20.209Z,288
2023-05-12T01:57:31.983Z,286
2023-05-12T01:59:47.066Z,288
2023-05-12T02:01:59.659Z,286
2023-05-12T02:04:11.344Z,288
2023-05-12T02:06:23.028Z,286
2023-05-12T02:08:34.546Z,285
2023-05-12T02:10:46.645Z,286
2023-05-12T02:12:56.860Z,286
2023-05-12T02:15:09.777Z,286
2023-05-12T02:17:20.965Z,286
2023-05-12T02:19:33.876Z,286
2023-05-12T02:21:45.468Z,286
2023-05-12T02:23:57.123Z,286
2023-05-12T02:26:07.258Z,286
2023-05-12T02:28:18.108Z,286
2023-05-12T02:30:29.567Z,286
2023-05-12T02:32:41.654Z,286
2023-05-12T02:34:55.909Z,286
2023-05-12T02:37:07.019Z,286
2023-05-12T02:39:17.553Z,286
2023-05-12T02:41:29.974Z,286
2023-05-12T02:43:41.646Z,286
2023-05-12T02:45:53.407Z,286
2023-05-12T02:48:04.859Z,286
2023-05-12T02:50:17.823Z,286
2023-05-12T02:52:28.146Z,286
2023-05-12T02:54:39.678Z,286
2023-05-12T02:56:50.548Z,286
2023-05-12T02:59:01.101Z,286
2023-05-12T03:01:17.458Z,285
2023-05-12T03:03:30.304Z,286
2023-05-12T03:05:42.791Z,286
2023-05-12T03:07:54.517Z,286
2023-05-12T03:10:06.948Z,286
2023-05-12T03:12:18.074Z,286
2023-05-12T03:14:31.220Z,286
2023-05-12T03:16:45.250Z,286
2023-05-12T03:18:57.636Z,288
2023-05-12T03:21:10.262Z,286
2023-05-12T03:23:21.312Z,286
2023-05-12T03:25:32.755Z,286
2023-05-12T03:27:44.101Z,286
2023-05-12T03:29:56.137Z,286
2023-05-12T03:32:07.111Z,286
2023-05-12T03:34:18.150Z,284
2023-05-12T03:36:28.440Z,284
2023-05-12T03:38:42.040Z,284
2023-05-12T03:40:54.396Z,284
2023-05-12T03:43:06.832Z,284
2023-05-12T03:45:18.549Z,284
2023-05-12T03:47:34.595Z,283
2023-05-12T03:49:48.268Z,283
2023-05-12T03:52:00.703Z,285
2023-05-12T03:54:11.871Z,286
2023-05-12T03:56:23.052Z,283
2023-05-12T03:58:33.420Z,284
2023-05-12T04:00:44.755Z,284
2023-05-12T04:03:00.835Z,284
2023-05-12T04:05:12.188Z,284
2023-05-12T04:07:23.856Z,284
2023-05-12T04:09:39.057Z,284
2023-05-12T04:11:51.295Z,284
2023-05-12T04:14:01.929Z,284
2023-05-12T04:16:15.593Z,284
2023-05-12T04:18:26.524Z,285
2023-05-12T04:20:37.095Z,284
2023-05-12T04:22:48.433Z,284
2023-05-12T04:24:59.597Z,284
2023-05-12T04:27:11.320Z,284
2023-05-12T04:29:22.700Z,284
2023-05-12T04:31:37.057Z,284
2023-05-12T04:33:53.313Z,284
2023-05-12T04:36:04.295Z,284
2023-05-12T04:38:19.961Z,286
2023-05-12T04:40:36.372Z,286
2023-05-12T04:42:50.464Z,284
2023-05-12T04:47:44.110Z,284
2023-05-12T04:49:56.534Z,283
2023-05-12T04:52:08.749Z,285
2023-05-12T04:54:18.750Z,284
2023-05-12T04:56:31.634Z,285
2023-05-12T04:58:42.354Z,285
2023-05-12T05:00:57.007Z,284
2023-05-12T05:03:15.241Z,284
2023-05-12T05:05:28.798Z,284
2023-05-12T05:07:40.494Z,284
2023-05-12T05:09:53.070Z,284
2023-05-12T05:12:06.068Z,284
2023-05-12T05:14:17.866Z,284
2023-05-12T05:16:28.003Z,284
2023-05-12T05:18:39.405Z,284
2023-05-12T05:21:01.681Z,284
2023-05-12T05:23:19.055Z,284
2023-05-12T05:25:31.578Z,286
2023-05-12T05:27:42.596Z,286
2023-05-12T05:29:56.059Z,286
2023-05-12T05:32:11.387Z,286
2023-05-12T05:34:23.403Z,286
2023-05-12T05:36:36.686Z,286
2023-05-12T05:38:48.470Z,286
2023-05-12T05:40:59.291Z,286
2023-05-12T05:43:09.794Z,286
2023-05-12T05:45:25.530Z,284
2023-05-12T05:47:41.116Z,284
2023-05-12T05:49:56.718Z,284
2023-05-12T05:52:10.329Z,286
2023-05-12T05:54:22.479Z,288
2023-05-12T05:56:35.050Z,288
2023-05-12T05:58:50.633Z,288
2023-05-12T06:01:03.392Z,288
2023-05-12T06:03:17.237Z,288
2023-05-12T06:05:31.790Z,286
2023-05-12T06:07:44.349Z,288
2023-05-12T06:09:58.087Z,288
2023-05-12T06:12:09.026Z,288
2023-05-12T06:14:21.854Z,288
2023-05-12T06:16:35.081Z,288
2023-05-12T06:18:48.610Z,288
2023-05-12T06:21:03.625Z,288
2023-05-12T06:23:17.547Z,288
2023-05-12T06:25:32.322Z,288
2023-05-12T06:27:51.695Z,288
2023-05-12T06:30:05.286Z,288
2023-05-12T06:32:19.067Z,288
2023-05-12T06:34:31.568Z,288
2023-05-12T06:36:43.809Z,288
2023-05-12T06:38:55.450Z,288
2023-05-12T06:41:07.389Z,288
2023-05-12T06:43:21.031Z,288
2023-05-12T06:45:33.357Z,288
2023-05-12T06:47:47.191Z,288
2023-05-12T06:50:05.933Z,288
2023-05-12T06:52:20.309Z,288
2023-05-12T06:54:31.155Z,288
2023-05-12T06:56:42.438Z,288
2023-05-12T06:58:53.849Z,288
2023-05-12T07:01:08.320Z,288
2023-05-12T07:03:22.199Z,288
2023-05-12T07:05:34.109Z,288
2023-05-12T07:07:44.616Z,288
2023-05-12T07:09:57.416Z,288
2023-05-12T07:12:08.684Z,288
2023-05-12T07:14:20.333Z,288
2023-05-12T07:16:34.409Z,288
2023-05-12T07:18:45.601Z,288
2023-05-12T07:21:04.756Z,288
2023-05-12T07:23:17.104Z,288
2023-05-12T07:25:28.081Z,288
2023-05-12T07:27:44.551Z,288
2023-05-12T07:30:11.486Z,288
2023-05-12T07:32:28.585Z,288
2023-05-12T07:34:41.853Z,288
2023-05-12T07:36:52.749Z,288
2023-05-12T07:39:06.848Z,288
2023-05-12T07:41:17.630Z,288
2023-05-12T07:43:28.821Z,288
2023-05-12T07:45:40.161Z,288
2023-05-12T07:47:52.952Z,288
2023-05-12T07:50:04.952Z,288
2023-05-12T07:52:18.751Z,288
2023-05-12T07:54:29.773Z,288
2023-05-12T07:56:42.349Z,288
2023-05-12T07:58:57.853Z,288
2023-05-12T08:01:19.710Z,288
2023-05-12T08:03:31.426Z,288
2023-05-12T08:05:43.157Z,288
2023-05-12T08:07:54.876Z,288
2023-05-12T08:10:09.834Z,288
2023-05-12T08:12:23.846Z,288
2023-05-12T08:14:34.192Z,288
2023-05-12T08:16:44.827Z,288
2023-05-12T08:18:58.155Z,288
2023-05-12T08:21:10.272Z,288
2023-05-12T08:23:21.945Z,288
2023-05-12T08:25:38.909Z,288
2023-05-12T08:27:51.825Z,288
2023-05-12T08:30:09.248Z,288
2023-05-12T08:32:21.819Z,288
2023-05-12T08:34:31.728Z,288
2023-05-12T08:36:43.629Z,288
2023-05-12T08:38:56.150Z,288
2023-05-12T08:41:11.305Z,288
2023-05-12T08:43:36.164Z,288
2023-05-12T08:45:48.866Z,288
2023-05-12T08:47:58.987Z,288
2023-05-12T08:50:10.524Z,288
2023-05-12T08:52:20.923Z,288
2023-05-12T08:54:33.417Z,288
2023-05-12T08:59:18.650Z,288
2023-05-12T09:01:29.957Z,288
2023-05-12T09:03:42.384Z,288
2023-05-12T09:05:57.669Z,288
2023-05-12T09:08:10.282Z,288
2023-05-12T09:10:39.909Z,288
2023-05-12T09:12:51.206Z,288
2023-05-12T09:15:02.125Z,288
2023-05-12T09:17:13.986Z,288
2023-05-12T09:19:24.171Z,288
2023-05-12T09:21:35.203Z,288
2023-05-12T09:23:45.489Z,288
2023-05-12T09:25:59.926Z,288
2023-05-12T09:28:15.249Z,288
2023-05-12T09:30:28.068Z,288
2023-05-12T09:32:40.051Z,288
2023-05-12T09:34:53.251Z,288
2023-05-12T09:37:04.135Z,288
2023-05-12T09:39:15.057Z,288
2023-05-12T09:41:25.934Z,288
2023-05-12T09:43:37.332Z,288
2023-05-12T09:45:50.159Z,288
2023-05-12T09:48:01.476Z,288
2023-05-12T09:50:11.928Z,288
2023-05-12T09:52:24.429Z,288
2023-05-12T09:54:40.196Z,288
2023-05-12T09:56:50.488Z,288
2023-05-12T09:59:18.549Z,288
2023-05-12T10:01:43.057Z,288
2023-05-12T10:03:55.910Z,288
2023-05-12T10:06:12.870Z,288
2023-05-12T10:08:25.193Z,288
2023-05-12T10:10:38.783Z,288
2023-05-12T10:12:49.846Z,284
2023-05-12T10:15:01.362Z,284
2023-05-12T10:17:12.856Z,286
2023-05-12T10:19:23.247Z,286
2023-05-12T10:21:33.700Z,286
2023-05-12T10:23:46.207Z,286
2023-05-12T10:25:58.666Z,288
2023-05-12T10:28:10.049Z,288
2023-05-12T10:30:21.406Z,288
2023-05-12T10:32:33.812Z,288
2023-05-12T10:34:45.248Z,288
2023-05-12T10:56:19.361Z,288
2023-05-12T10:58:36.691Z,288
2023-05-12T11:00:50.872Z,288
2023-05-12T11:03:15.525Z,288
2023-05-12T11:05:32.298Z,288
2023-05-12T11:07:47.307Z,288
2023-05-12T11:10:10.545Z,284
2023-05-12T11:12:22.151Z,288
2023-05-12T11:14:32.732Z,288
2023-05-12T11:16:46.819Z,288
2023-05-12T11:19:02.072Z,288
2023-05-12T11:21:46.630Z,288
2023-05-12T11:27:15.937Z,288
2023-05-12T11:29:32.789Z,286
2023-05-12T11:31:47.734Z,284
2023-05-12T11:34:18.557Z,288
2023-05-12T11:36:30.711Z,286
2023-05-12T11:38:43.929Z,286
2023-05-12T11:40:57.817Z,288
2023-05-12T11:43:09.133Z,286
2023-05-12T11:45:22.221Z,286
2023-05-12T11:47:38.601Z,286
2023-05-12T11:50:19.971Z,286
2023-05-12T11:52:31.608Z,286
2023-05-12T11:54:45.511Z,288
2023-05-12T11:57:10.952Z,286
2023-05-12T11:59:23.673Z,286
2023-05-12T12:01:35.074Z,286
2023-05-12T12:03:49.630Z,286
2023-05-12T12:06:01.193Z,286
2023-05-12T12:08:15.972Z,284
2023-05-12T12:10:34.638Z,283
2023-05-12T12:12:46.280Z,288
2023-05-12T12:14:58.055Z,288
2023-05-12T12:17:10.799Z,284
2023-05-12T12:19:25.412Z,286
2023-05-12T12:21:46.134Z,288
2023-05-12T12:27:34.556Z,286
2023-05-12T12:30:04.724Z,282
2023-05-12T12:32:22.205Z,284
2023-05-12T12:34:38.514Z,286
2023-05-12T12:36:53.233Z,286
2023-05-12T12:39:11.213Z,284
2023-05-12T12:41:39.474Z,286
2023-05-12T12:43:57.098Z,286
2023-05-12T12:46:08.514Z,286
2023-05-12T12:48:19.491Z,284
2023-05-12T12:50:52.632Z,284
2023-05-12T12:53:07.994Z,286
2023-05-12T12:55:20.381Z,284
2023-05-12T12:57:33.457Z,282
2023-05-12T12:59:47.174Z,281
2023-05-12T13:01:58.943Z,283
2023-05-12T13:04:14.090Z,283
2023-05-12T13:06:27.907Z,283
2023-05-12T13:08:41.714Z,283
2023-05-12T13:10:53.692Z,281
2023-05-12T13:13:06.434Z,280
2023-05-12T13:15:28.970Z,281
2023-05-12T13:18:01.149Z,288
2023-05-12T13:20:30.001Z,284
2023-05-12T13:22:56.235Z,283
2023-05-12T13:25:13.910Z,286
2023-05-12T13:27:26.636Z,284
2023-05-12T13:29:40.670Z,284
2023-05-12T13:31:56.533Z,283
2023-05-12T13:34:11.208Z,283
2023-05-12T13:36:24.868Z,288
2023-05-12T13:38:53.295Z,284
2023-05-12T13:41:25.590Z,284
2023-05-12T13:43:38.890Z,284
2023-05-12T13:45:52.365Z,283
2023-05-12T13:48:11.683Z,284
2023-05-12T13:50:33.518Z,284
2023-05-12T13:52:47.250Z,286
2023-05-12T13:55:04.375Z,284
2023-05-12T13:57:22.808Z,284
2023-05-12T13:59:34.998Z,284
2023-05-12T14:01:50.258Z,284
2023-05-12T14:04:07.811Z,283
2023-05-12T14:06:27.070Z,282
2023-05-12T14:08:39.407Z,283
2023-05-12T14:10:58.254Z,283
2023-05-12T14:13:11.512Z,282
2023-05-12T14:15:54.463Z,283
2023-05-12T14:18:08.675Z,283
2023-05-12T14:20:22.623Z,283
2023-05-12T14:22:37.010Z,284
2023-05-12T14:25:03.508Z,290
2023-05-12T14:27:16.762Z,290
2023-05-12T14:29:32.888Z,293
2023-05-12T14:31:47.012Z,289
2023-05-12T14:34:00.912Z,290
2023-05-12T14:36:13.930Z,292
2023-05-12T14:38:33.370Z,291
2023-05-12T14:40:53.270Z,291
2023-05-12T14:43:09.375Z,290
2023-05-12T14:45:31.481Z,289
2023-05-12T14:47:45.180Z,289
2023-05-12T14:49:58.892Z,291
2023-05-12T14:52:16.935Z,289
2023-05-12T14:54:47.071Z,291
2023-05-12T14:57:03.391Z,291
2023-05-12T14:59:19.539Z,293
2023-05-12T15:01:33.677Z,290
2023-05-12T15:03:49.512Z,290
2023-05-12T15:06:15.267Z,290
2023-05-12T15:08:32.882Z,285
2023-05-12T15:10:47.655Z,290
2023-05-12T15:13:27.229Z,288
2023-05-12T15:15:45.792Z,290
2023-05-12T15:21:03.498Z,290
2023-05-12T15:23:32.016Z,291
2023-05-12T15:28:46.431Z,290
2023-05-12T15:30:59.535Z,289
2023-05-12T15:33:22.495Z,290
2023-05-12T15:35:36.289Z,291
2023-05-12T15:37:51.274Z,290
2023-05-12T15:40:08.898Z,286
2023-05-12T15:42:37.551Z,290
2023-05-12T15:44:48.476Z,290
2023-05-12T15:47:04.096Z,289
2023-05-12T15:49:22.978Z,289
2023-05-12T15:51:40.276Z,289
2023-05-12T15:53:54.594Z,291
2023-05-12T15:56:07.857Z,288
2023-05-12T15:58:24.597Z,289
2023-05-12T16:00:39.645Z,291
2023-05-12T16:02:56.634Z,290
2023-05-12T16:05:11.494Z,290
2023-05-12T16:07:29.818Z,291
2023-05-12T16:09:44.220Z,291
2023-05-12T16:11:58.235Z,290
2023-05-12T16:14:27.134Z,290
2023-05-12T16:16:42.379Z,290
2023-05-12T16:19:01.832Z,289
2023-05-12T16:21:24.246Z,289
2023-05-12T16:23:39.725Z,292
2023-05-12T16:25:53.814Z,291
2023-05-12T16:28:06.774Z,291
2023-05-12T16:30:29.072Z,290
2023-05-12T16:32:47.647Z,290
2023-05-12T16:35:02.042Z,293
2023-05-12T16:40:09.003Z,291
2023-05-12T16:42:23.413Z,291
2023-05-12T16:44:37.034Z,291
2023-05-12T16:46:49.863Z,291
2023-05-12T16:49:02.956Z,290
2023-05-12T16:51:14.669Z,292
2023-05-12T16:53:30.282Z,292
2023-05-12T16:55:46.815Z,291
2023-05-12T16:58:00.516Z,292
2023-05-12T17:00:14.903Z,292
2023-05-12T17:02:37.000Z,291
2023-05-12T17:04:54.789Z,290
2023-05-12T17:07:09.887Z,291
2023-05-12T17:09:25.047Z,292
2023-05-12T17:11:43.435Z,291
2023-05-12T17:14:00.210Z,291
2023-05-12T17:16:15.572Z,291
2023-05-12T17:18:28.933Z,291
2023-05-12T17:20:47.832Z,291
2023-05-12T17:23:01.013Z,293
2023-05-12T17:25:19.678Z,293
2023-05-12T17:27:35.713Z,293
2023-05-12T17:29:48.449Z,290
2023-05-12T17:32:01.855Z,289
2023-05-12T17:34:17.050Z,290
2023-05-12T17:36:30.269Z,290
2023-05-12T17:38:45.809Z,291
2023-05-12T17:41:02.877Z,291
2023-05-12T17:43:18.954Z,293
2023-05-12T17:45:36.322Z,291
2023-05-12T17:47:53.027Z,289
2023-05-12T17:50:08.432Z,290
2023-05-12T17:52:21.239Z,289
2023-05-12T17:54:37.496Z,266
2023-05-12T17:56:49.490Z,279
2023-05-12T17:59:01.638Z,204
2023-05-12T18:01:13.260Z,270
2023-05-12T18:03:40.958Z,262
2023-05-12T18:06:05.436Z,292
2023-05-12T18:08:18.998Z,290
2023-05-12T18:10:30.642Z,291
2023-05-12T18:12:47.617Z,291
2023-05-12T18:15:02.316Z,291
2023-05-12T18:17:18.342Z,291
2023-05-12T18:19:32.075Z,291
2023-05-12T18:21:49.063Z,290
2023-05-12T18:24:06.914Z,290
2023-05-12T18:26:22.903Z,290
2023-05-12T18:28:36.336Z,289
2023-05-12T18:30:50.460Z,290
2023-05-12T18:33:14.015Z,284
2023-05-12T18:35:29.936Z,290
2023-05-12T18:37:47.937Z,291
2023-05-12T18:40:06.658Z,292
2023-05-12T18:42:24.154Z,291
2023-05-12T18:44:44.135Z,289
2023-05-12T18:46:58.838Z,291
2023-05-12T18:49:12.238Z,291
2023-05-12T18:51:31.111Z,290
2023-05-12T18:53:46.014Z,290
2023-05-12T18:56:04.470Z,292
2023-05-12T18:58:16.996Z,290
2023-05-12T19:00:28.811Z,291
2023-05-12T19:02:43.186Z,291
2023-05-12T19:04:56.254Z,290
2023-05-12T19:07:10.976Z,291
2023-05-12T19:09:31.975Z,289
2023-05-12T19:11:49.052Z,290
2023-05-12T19:14:00.675Z,289
2023-05-12T19:16:16.037Z,291
2023-05-12T19:18:32.267Z,290
2023-05-12T19:20:45.914Z,291
2023-05-12T19:23:06.953Z,291
2023-05-12T19:25:19.460Z,291
2023-05-12T19:27:33.319Z,293
2023-05-12T19:29:51.042Z,294
2023-05-12T19:32:04.231Z,293
2023-05-12T19:34:18.501Z,293
2023-05-12T19:36:32.249Z,289
2023-05-12T19:38:45.495Z,289
2023-05-12T19:40:57.023Z,290
2023-05-12T19:43:10.235Z,289
2023-05-12T19:45:25.503Z,289
2023-05-12T19:47:41.557Z,289
2023-05-12T19:49:54.459Z,289
2023-05-12T19:52:08.857Z,288
2023-05-12T19:54:40.978Z,286
2023-05-12T19:56:57.878Z,283
2023-05-12T19:59:31.799Z,288
2023-05-12T20:01:46.430Z,290
2023-05-12T20:03:59.964Z,289
2023-05-12T20:06:13.319Z,288
2023-05-12T20:08:25.359Z,288
2023-05-12T20:10:43.334Z,289
2023-05-12T20:13:01.518Z,290
2023-05-12T20:15:13.281Z,289
2023-05-12T20:17:30.742Z,290
2023-05-12T20:19:44.262Z,288
2023-05-12T20:21:56.039Z,289
2023-05-12T20:24:23.756Z,289
2023-05-12T20:26:37.603Z,283
2023-05-12T20:28:49.655Z,282
2023-05-12T20:31:04.020Z,283
2023-05-12T20:33:15.698Z,286
2023-05-12T20:35:32.961Z,284
2023-05-12T20:37:49.023Z,283
2023-05-12T20:40:01.037Z,282
2023-05-12T20:42:14.297Z,283
2023-05-12T20:44:27.684Z,281
2023-05-12T20:46:43.711Z,283
2023-05-12T20:48:55.162Z,279
2023-05-12T20:51:07.015Z,280
2023-05-12T20:53:17.653Z,277
2023-05-12T20:55:30.658Z,280
2023-05-12T20:57:47.536Z,281
2023-05-12T21:00:05.473Z,282
2023-05-12T21:02:25.370Z,282
2023-05-12T21:04:51.457Z,281
2023-05-12T21:07:05.838Z,281
2023-05-12T21:09:18.211Z,279
2023-05-12T21:11:34.684Z,281
2023-05-12T21:13:48.488Z,280
2023-05-12T21:16:08.341Z,281
2023-05-12T21:18:27.914Z,281
2023-05-12T21:20:44.936Z,278
2023-05-12T21:23:15.975Z,282
2023-05-12T21:25:27.075Z,281
2023-05-12T21:27:40.385Z,279
2023-05-12T21:29:53.136Z,282
2023-05-12T21:32:06.878Z,280
2023-05-12T21:34:20.234Z,282
2023-05-12T21:36:37.274Z,282
2023-05-12T21:38:49.773Z,282
2023-05-12T21:41:03.157Z,281
2023-05-12T21:43:17.308Z,281
2023-05-12T21:45:34.950Z,281
2023-05-12T21:47:58.482Z,280
2023-05-12T21:50:14.177Z,281
2023-05-12T21:52:27.146Z,280
2023-05-12T21:54:44.472Z,281
2023-05-12T21:57:02.154Z,281
2023-05-12T21:59:16.939Z,282
2023-05-12T22:01:28.512Z,280
2023-05-12T22:03:42.244Z,280
2023-05-12T22:05:54.614Z,282
2023-05-12T22:08:08.358Z,282
2023-05-12T22:10:23.005Z,281
2023-05-12T22:12:37.657Z,282
2023-05-12T22:15:03.616Z,282
2023-05-12T22:17:17.656Z,280
2023-05-12T22:19:33.396Z,281
2023-05-12T22:21:45.361Z,281
2023-05-12T22:24:19.439Z,280
2023-05-12T22:26:34.181Z,278
2023-05-12T22:28:45.730Z,277
2023-05-12T22:30:57.080Z,273
2023-05-12T22:33:13.987Z,276
2023-05-12T22:35:25.980Z,277
2023-05-12T22:37:39.260Z,272
2023-05-12T22:39:52.060Z,273
2023-05-12T22:42:25.953Z,273
2023-05-12T22:44:58.318Z,268
2023-05-12T22:47:10.895Z,272
2023-05-12T22:49:23.199Z,273
2023-05-12T22:51:40.096Z,271
2023-05-12T22:54:05.109Z,276
2023-05-12T22:56:17.077Z,276
2023-05-12T22:58:30.057Z,279
2023-05-12T23:00:42.160Z,279
2023-05-12T23:02:54.549Z,279
2023-05-12T23:05:07.279Z,278
2023-05-12T23:07:20.438Z,276
2023-05-12T23:09:31.719Z,277
2023-05-12T23:11:44.721Z,279
2023-05-12T23:14:00.695Z,280
2023-05-12T23:16:16.231Z,278
2023-05-12T23:18:28.851Z,279
2023-05-12T23:20:43.715Z,279
2023-05-12T23:23:00.597Z,278
2023-05-12T23:25:14.856Z,277
2023-05-12T23:27:32.474Z,280
2023-05-12T23:29:45.039Z,279
2023-05-12T23:31:57.493Z,280
2023-05-12T23:34:11.364Z,279
2023-05-12T23:36:23.359Z,278
2023-05-12T23:38:37.202Z,279
2023-05-12T23:40:51.152Z,277
2023-05-12T23:43:07.920Z,276
2023-05-12T23:45:18.760Z,267
2023-05-12T23:47:33.471Z,274
2023-05-12T23:49:46.410Z,274
2023-05-12T23:51:58.452Z,274
2023-05-12T23:54:10.014Z,273
2023-05-12T23:56:25.017Z,272
2023-05-12T23:58:38.337Z,274
